• Join FlightAware (Why Join?)
  • Login
  • US Flag 
Gobble Gobble! 
12:56AM EST


 

Airport Tracker/Info


-or-


 

Live Flight TrackerFlight Track Log ✈ SWA1707 ✈ 25-Dec-2013 ✈ KSAN - KOAK

Flight Track Log - Related Links

Times and Time Zones

All times are in EST time to prevent confusion due to time zone crossing. See the SWA1707 flight status page for this flight to view local times or setup timezone preferences in your user account.

Time Position Orientation Groundspeed Altitude Reporting Facility
EST Latitude Longitude Course Direction KTS MPH feet Rate Location/Type
04:00PM 32.7667 -117.2500 320° Northwest 207 238 2,900  Level Southern California TRACON
04:01PM 32.8047 -117.3042 310° West 233 268 5,800 3,420 Climbing Los Angeles Center
04:02PM 32.8542 -117.3758 309° West 274 315 9,900 3,480 Climbing Los Angeles Center
04:03PM 32.9108 -117.4536 311° West 306 352 13,000 3,240 Climbing Los Angeles Center
04:04PM 32.9772 -117.5453 311° West 354 407 16,600 3,240 Climbing Los Angeles Center
04:05PM 33.1032 -117.7199 320° Northwest  Level FlightAware Approximate
04:05PM 33.0436 -117.6414 310° West 372 428 19,800  Level Los Angeles Center
04:06PM 33.1331 -117.7561 313° West 390 449 23,500 3,120 Climbing Los Angeles Center
04:07PM 33.2264 -117.8325 326° Northwest 405 466 26,200 2,580 Climbing Los Angeles Center
04:08PM 33.3203 -117.9114 325° Northwest 412 474 28,800 2,460 Climbing Los Angeles Center
04:09PM 33.4147 -117.9897 325° Northwest 413 475 31,300 2,640 Climbing Los Angeles Center
04:10PM 33.5050 -118.0661 325° Northwest 405 466 34,300 2,580 Climbing Los Angeles Center
04:11PM 33.5894 -118.1383 325° Northwest 384 442 36,700 1,920 Climbing Los Angeles Center
04:12PM 33.6878 -118.2206 325° Northwest 366 421 38,300 1,200 Climbing Los Angeles Center
04:13PM 33.7753 -118.2967 324° Northwest 378 435 39,200 780 Climbing Los Angeles Center
04:14PM 33.8617 -118.3725 324° Northwest 383 441 40,000 360 Climbing Los Angeles Center
04:15PM 33.9450 -118.4389 327° Northwest 388 447 40,000  Level Los Angeles Center
04:16PM 34.0672 -118.4981 338° Northwest 395 455 40,000  Level Los Angeles Center
04:17PM 34.1703 -118.5492 338° Northwest 399 459 40,000  Level Los Angeles Center
04:18PM 34.2731 -118.5994 338° Northwest 399 459 40,000  Level Los Angeles Center
04:19PM 34.3758 -118.6494 338° Northwest 399 459 40,000  Level Los Angeles Center
04:20PM 34.4783 -118.7006 338° Northwest 398 458 40,000  Level Los Angeles Center
04:21PM 34.5814 -118.7514 338° Northwest 399 459 40,000  Level Los Angeles Center
04:22PM 34.6847 -118.8022 338° Northwest 401 461 40,000  Level Los Angeles Center
04:23PM 34.7878 -118.8544 337° Northwest 402 463 40,000  Level Los Angeles Center
04:24PM 34.8939 -118.9519 323° Northwest 400 460 40,000  Level Los Angeles Center
04:25PM 34.9775 -119.0281 323° Northwest 395 455 40,000  Level Los Angeles Center
04:26PM 35.0631 -119.1133 321° Northwest 398 458 40,000  Level Los Angeles Center
04:27PM 35.1506 -119.1978 322° Northwest 400 460 40,000  Level Los Angeles Center
04:28PM 35.2367 -119.2822 321° Northwest 400 460 40,000  Level Los Angeles Center
04:29PM 35.3397 -119.3847 321° Northwest 400 460 40,000  Level Los Angeles Center
04:31PM 35.4269 -119.4717 321° Northwest 402 463 40,000  Level Los Angeles Center
04:32PM 35.5128 -119.5564 321° Northwest 400 460 40,000  Level Los Angeles Center
04:33PM 35.5975 -119.6419 321° Northwest 397 457 40,000  Level Los Angeles Center
04:34PM 35.6836 -119.7264 321° Northwest 397 457 40,000  Level Los Angeles Center
04:35PM 35.7686 -119.8131 320° Northwest 399 459 40,000  Level Los Angeles Center
04:36PM 35.8725 -119.9178 321° Northwest 403 464 40,000  Level Los Angeles Center
04:37PM 35.9594 -120.0067 320° Northwest 406 467 40,000  Level Los Angeles Center
04:38PM 36.0458 -120.0961 320° Northwest 406 467 40,000  Level Los Angeles Center
04:39PM 36.1336 -120.1844 321° Northwest 408 470 40,000  Level Los Angeles Center
04:40PM 36.2206 -120.2725 321° Northwest 406 467 40,000  Level Los Angeles Center
04:41PM 36.3239 -120.3764 321° Northwest 405 466 40,000 -60 Level Oakland Center
04:42PM 36.4103 -120.4656 320° Northwest 406 467 39,900 -1,500 Descending Oakland Center
04:43PM 36.5131 -120.5692 321° Northwest 399 459 37,000 -3,060 Descending Oakland Center
04:44PM 36.5992 -120.6569 321° Northwest 401 461 33,700 -3,420 Descending Oakland Center
04:45PM 36.6878 -120.7508 320° Northwest 415 478 30,100 -3,420 Descending Oakland Center
04:46PM 36.7764 -120.8447 320° Northwest 418 481 26,800 -3,060 Descending Oakland Center
04:47PM 36.8569 -120.9414 316° Northwest 419 482 23,900 -2,880 Descending Oakland Center
04:48PM 36.9411 -121.0378 318° Northwest 412 474 21,000 -2,880 Descending Oakland Center
04:49PM 37.0222 -121.1319 317° Northwest 400 460 18,100 -2,760 Descending Oakland Center
04:50PM 37.1014 -121.2228 318° Northwest 389 448 15,400 -2,760 Descending Oakland Center
04:51PM 37.1783 -121.3103 318° Northwest 375 432 12,600 -2,400 Descending Oakland Center
04:52PM 37.2522 -121.3956 317° Northwest 363 418 10,600 -1,320 Descending Oakland Center
04:53PM 37.3222 -121.4794 316° Northwest 350 403 10,000 -300 Descending Oakland Center
04:54PM 37.4006 -121.5689 318° Northwest 347 399 10,000  Level Oakland Center
04:55PM 37.4625 -121.6594 311° West 348 400 10,000 -480 Level Oakland Center
04:56PM 37.4967 -121.7522 295° West 297 342 9,100 -1,260 Descending Oakland Center
04:57PM 37.5300 -121.8422 295° West 287 330 7,500 -1,560 Descending Oakland Center
04:58PM 37.5614 -121.9308 294° West 280 322 6,000 -1,800 Descending Oakland Center
04:59PM 37.5917 -122.0158 294° West 273 314 3,900 -1,740 Descending Oakland Center
05:00PM 37.6228 -122.0847 300° West 243 280 2,500 -1,320 Descending Oakland Center
05:01PM 37.6564 -122.1503 303° West 207 238 1,300 -960 Descending Oakland Center
05:02PM 37.6828 -122.1856 313° West 162 186 600 9,240 Descending Oakland Center
05:03PM 37.7061 -122.2208 310° West 144 166 20,000 19,080 Climbing Oakland Center
05:05PM 37.7167 -122.2167 270° West  Level FlightAware Approximate
05:12PM 37.7213 -122.2212 270° West  Level Estimated